Time;durP1;ratioP1;P1;durP2;ratioP2;P2;SDS_P1;SDS_P2;PMS_P1;PMS_P2;Temp;Humidity;BMP_temperature;BMP_pressure;BME280_temperature;BME280_humidity;BME280_pressure;Samples;Min_cycle;Max_cycle;Signal;HPM_P1;HPM_P2
2022/02/01 00:00:21;;;;;;;;;;;;;;;;;;1035130;28;936;-41
2022/02/01 00:01:17;;;;;;;;;;;;;;;;;;1035499;28;1975;-41
2022/02/01 00:01:53;;;;;;;;;;;;;;;;;;1035637;28;1073;-41
2022/02/01 00:02:36;;;;;;;;;;;;;;;;;;1035669;28;942;-40
2022/02/01 00:03:08;;;;;;;;;;;;;;;;;;1035402;28;1081;-41
2022/02/01 00:03:40;;;;;;;;;;;;;;;;;;1035824;28;960;-40
2022/02/01 00:04:19;;;;;;;;;;;;;;;;;;1035614;28;902;-40
2022/02/01 00:05:02;;;;;;;;;;;;;;;;;;1035347;28;977;-41
2022/02/01 00:05:43;;;;;;;;;;;;;;;;;;1035590;28;862;-41
2022/02/01 00:06:31;;;;;;;;;;;;;;;;;;1035730;28;1290;-41
2022/02/01 00:07:31;;;;;;;;;;;;;;;;;;1035698;28;906;-41
2022/02/01 00:08:08;;;;;;;;;;;;;;;;;;1034431;28;1573;-42
2022/02/01 00:08:47;;;;;;;;;;;;;;;;;;1035862;28;851;-41
2022/02/01 00:09:29;;;;;;;;;;;;;;;;;;1035771;28;1067;-41
2022/02/01 00:10:14;;;;;;;;;;;;;;;;;;1035437;28;1163;-41
2022/02/01 00:10:58;;;;;;;;;;;;;;;;;;1035479;28;934;-41
2022/02/01 00:12:36;;;;;;;;;;;;;;;;;;1035557;28;1093;-41
2022/02/01 00:14:31;;;;;;;;;;;;;;;;;;1035471;28;943;-41
2022/02/01 00:15:22;;;;;;;;;;;;;;;;;;1035683;28;866;-40
2022/02/01 00:16:13;;;;;;;;;;;;;;;;;;1035515;28;976;-41
2022/02/01 00:17:07;;;;;;;;;;;;;;;;;;1035657;28;912;-41
2022/02/01 00:20:38;;;;;;;;;;;;;;;;;;1035519;28;1084;-41
2022/02/01 00:36:26;;;;;;;;;;;;;;;;;;1035580;28;949;-40
2022/02/01 00:36:32;;;;;;;;;;;;;;;;;;1021489;28;1138;-40
2022/02/01 00:37:06;;;;;;;;;;;;;;;;;;1035588;28;942;-41
2022/02/01 00:37:49;;;;;;;;;;;;;;;;;;1035590;28;1005;-41
2022/02/01 00:38:38;;;;;;;;;;;;;;;;;;1035531;28;946;-40
2022/02/01 00:39:12;;;;;;;;;;;;;;;;;;1035167;28;1016;-41
2022/02/01 00:39:44;;;;;;;;;;;;;;;;;;1035483;28;1729;-41
2022/02/01 00:40:14;;;;;;;;;;;;;;;;;;1035398;28;945;-41
2022/02/01 00:40:53;;;;;;;;;;;;;;;;;;1035292;28;1910;-41
2022/02/01 00:41:28;;;;;;;;;;;;;;;;;;1035373;28;918;-41
2022/02/01 00:41:59;;;;;;;;;;;;;;;;;;1035672;28;945;-41
2022/02/01 00:42:29;;;;;;;;;;;;;;;;;;1035541;28;846;-41
2022/02/01 00:43:00;;;;;;;;;;;;;;;;;;1035398;28;1036;-41
2022/02/01 00:43:31;;;;;;;;;;;;;;;;;;1035441;28;1019;-41
2022/02/01 00:44:02;;;;;;;;;;;;;;;;;;1035391;28;953;-41
2022/02/01 00:44:32;;;;;;;;;;;;;;;;;;1035671;28;886;-41
2022/02/01 00:45:04;;;;;;;;;;;;;;;;;;1035518;28;926;-40
2022/02/01 00:45:34;;;;;;;;;;;;;;;;;;1035286;28;1078;-41
2022/02/01 00:46:05;;;;;;;;;;;;;;;;;;1035571;28;1014;-41
2022/02/01 00:46:35;;;;;;;;;;;;;;;;;;1035420;28;939;-41
2022/02/01 00:47:06;;;;;;;;;;;;;;;;;;1030958;28;1195;-41
2022/02/01 00:47:36;;;;;;;;;;;;;;;;;;1031198;28;972;-41
2022/02/01 00:48:07;;;;;;;;;;;;;;;;;;1030906;28;890;-41
2022/02/01 00:48:37;;;;;;;;;;;;;;;;;;1031345;28;1037;-41
2022/02/01 00:49:07;;;;;;;;;;;;;;;;;;1035307;28;918;-41
2022/02/01 00:49:39;;;;;;;;;;;;;;;;;;1035476;28;925;-41
2022/02/01 00:50:15;;;;;;;;;;;;;;;;;;1035392;28;1001;-41
2022/02/01 00:50:45;;;;;;;;;;;;;;;;;;1035217;28;1044;-41
2022/02/01 00:51:16;;;;;;;;;;;;;;;;;;1035614;28;877;-40
2022/02/01 00:51:46;;;;;;;;;;;;;;;;;;1035433;28;887;-41
2022/02/01 00:52:16;;;;;;;;;;;;;;;;;;1035344;28;902;-41
2022/02/01 00:52:47;;;;;;;;;;;;;;;;;;1035522;28;984;-41
2022/02/01 00:53:22;;;;;;;;;;;;;;;;;;1035327;28;1770;-41
2022/02/01 00:53:52;;;;;;;;;;;;;;;;;;1035412;28;847;-40
2022/02/01 00:54:22;;;;;;;;;;;;;;;;;;1035612;28;961;-41
2022/02/01 00:54:52;;;;;;;;;;;;;;;;;;1035192;28;852;-41
2022/02/01 00:55:23;;;;;;;;;;;;;;;;;;1035561;28;1041;-41
2022/02/01 00:55:54;;;;;;;;;;;;;;;;;;1035340;28;1055;-41
2022/02/01 00:56:25;;;;;;;;;;;;;;;;;;1035335;28;914;-41
2022/02/01 00:56:55;;;;;;;;;;;;;;;;;;1035567;28;899;-41
2022/02/01 00:57:26;;;;;;;;;;;;;;;;;;1035189;28;968;-41
2022/02/01 00:57:56;;;;;;;;;;;;;;;;;;1035650;28;951;-41
2022/02/01 00:58:26;;;;;;;;;;;;;;;;;;1035409;28;1046;-41
2022/02/01 00:58:57;;;;;;;;;;;;;;;;;;1035469;28;953;-41
2022/02/01 00:59:27;;;;;;;;;;;;;;;;;;1035471;28;1085;-41
2022/02/01 00:59:57;;;;;;;;;;;;;;;;;;1035372;28;893;-41
2022/02/01 01:00:28;;;;;;;;;;;;;;;;;;1035202;28;935;-41
2022/02/01 01:00:58;;;;;;;;;;;;;;;;;;1035539;28;1990;-39
2022/02/01 01:01:28;;;;;;;;;;;;;;;;;;1035213;28;874;-41
2022/02/01 01:01:58;;;;;;;;;;;;;;;;;;1035676;28;1069;-41
2022/02/01 01:02:29;;;;;;;;;;;;;;;;;;1035139;28;882;-41
2022/02/01 01:02:59;;;;;;;;;;;;;;;;;;1035525;28;808;-40
2022/02/01 01:03:30;;;;;;;;;;;;;;;;;;1035452;28;1010;-41
2022/02/01 01:04:00;;;;;;;;;;;;;;;;;;1035322;28;846;-41
2022/02/01 01:04:31;;;;;;;;;;;;;;;;;;1035488;28;798;-41
2022/02/01 01:05:01;;;;;;;;;;;;;;;;;;1035431;28;887;-41
2022/02/01 01:05:32;;;;;;;;;;;;;;;;;;1035268;28;837;-41
2022/02/01 01:06:02;;;;;;;;;;;;;;;;;;1035648;28;946;-41
2022/02/01 01:06:32;;;;;;;;;;;;;;;;;;1035078;28;935;-41
2022/02/01 01:07:03;;;;;;;;;;;;;;;;;;1035584;28;925;-41
2022/02/01 01:07:33;;;;;;;;;;;;;;;;;;1035378;28;958;-41
2022/02/01 01:08:04;;;;;;;;;;;;;;;;;;1035353;28;973;-40
2022/02/01 01:08:34;;;;;;;;;;;;;;;;;;1035287;28;1001;-41
2022/02/01 01:09:04;;;;;;;;;;;;;;;;;;1035394;28;1050;-41
2022/02/01 01:09:35;;;;;;;;;;;;;;;;;;1035424;28;799;-41
2022/02/01 01:10:07;;;;;;;;;;;;;;;;;;1035505;28;957;-40
2022/02/01 01:10:37;;;;;;;;;;;;;;;;;;1035167;28;858;-41
2022/02/01 01:11:09;;;;;;;;;;;;;;;;;;1035376;28;1088;-41
2022/02/01 01:11:39;;;;;;;;;;;;;;;;;;1035370;28;906;-41
2022/02/01 01:12:10;;;;;;;;;;;;;;;;;;1035344;28;1033;-41
2022/02/01 01:12:52;;;;;;;;;;;;;;;;;;1035496;28;997;-41
2022/02/01 01:15:28;;;;;;;;;;;;;;;;;;1035444;28;1061;-40
2022/02/01 01:16:52;;;;;;;;;;;;;;;;;;1035175;28;1060;-42
2022/02/01 01:17:41;;;;;;;;;;;;;;;;;;1034977;28;1547;-41
2022/02/01 01:43:47;;;;;;;;;;;;;;;;;;1035053;28;1094;-41
2022/02/01 01:44:29;;;;;;;;;;;;;;;;;;1030962;28;942;-40
2022/02/01 01:45:09;;;;;;;;;;;;;;;;;;1030796;28;1031;-41
2022/02/01 01:53:24;;;;;;;;;;;;;;;;;;1035239;28;945;-41
2022/02/01 01:53:55;;;;;;;;;;;;;;;;;;1035277;28;865;-41
2022/02/01 01:54:26;;;;;;;;;;;;;;;;;;1035147;28;1059;-41
2022/02/01 01:54:56;;;;;;;;;;;;;;;;;;1035162;28;938;-41
2022/02/01 01:55:26;;;;;;;;;;;;;;;;;;1035261;28;1655;-41
2022/02/01 01:55:57;;;;;;;;;;;;;;;;;;1035231;28;918;-41
2022/02/01 01:56:29;;;;;;;;;;;;;;;;;;1035229;28;606;-41
2022/02/01 01:56:59;;;;;;;;;;;;;;;;;;1035174;28;1117;-41
2022/02/01 01:57:30;;;;;;;;;;;;;;;;;;1035082;28;895;-41
2022/02/01 01:58:00;;;;;;;;;;;;;;;;;;1035420;28;786;-41
2022/02/01 01:58:30;;;;;;;;;;;;;;;;;;1035125;28;918;-41
2022/02/01 01:59:02;;;;;;;;;;;;;;;;;;1035195;28;886;-41
2022/02/01 01:59:32;;;;;;;;;;;;;;;;;;1035240;28;1050;-40
2022/02/01 02:00:03;;;;;;;;;;;;;;;;;;1035164;28;1969;-41
2022/02/01 02:01:01;;;;;;;;;;;;;;;;;;1034859;28;1927;-40
2022/02/01 02:01:32;;;;;;;;;;;;;;;;;;1035243;28;807;-40
2022/02/01 02:02:04;;;;;;;;;;;;;;;;;;1035218;28;984;-40
2022/02/01 02:02:34;;;;;;;;;;;;;;;;;;1035235;28;1012;-40
2022/02/01 02:03:05;;;;;;;;;;;;;;;;;;1035071;28;949;-41
2022/02/01 02:03:35;;;;;;;;;;;;;;;;;;1035232;28;1069;-40
2022/02/01 02:04:06;;;;;;;;;;;;;;;;;;1034906;28;1791;-40
2022/02/01 02:04:36;;;;;;;;;;;;;;;;;;1035438;28;906;-40
2022/02/01 02:05:07;;;;;;;;;;;;;;;;;;1035011;28;1228;-41
2022/02/01 02:05:37;;;;;;;;;;;;;;;;;;1035272;28;819;-40
2022/02/01 02:06:07;;;;;;;;;;;;;;;;;;1035118;28;938;-40
2022/02/01 02:06:38;;;;;;;;;;;;;;;;;;1035109;28;903;-40
2022/02/01 02:07:09;;;;;;;;;;;;;;;;;;1035339;28;819;-40
2022/02/01 02:07:39;;;;;;;;;;;;;;;;;;1035049;28;1000;-40
2022/02/01 02:08:11;;;;;;;;;;;;;;;;;;1035199;28;953;-40
2022/02/01 02:08:45;;;;;;;;;;;;;;;;;;1035251;28;902;-40
2022/02/01 02:09:15;;;;;;;;;;;;;;;;;;1035117;28;1056;-40
2022/02/01 02:09:46;;;;;;;;;;;;;;;;;;1035135;28;869;-40
2022/02/01 02:10:17;;;;;;;;;;;;;;;;;;1030795;28;1118;-40
2022/02/01 02:10:59;;;;;;;;;;;;;;;;;;1030537;28;1010;-40
2022/02/01 02:12:20;;;;;;;;;;;;;;;;;;1034486;28;822;-41
2022/02/01 02:13:00;;;;;;;;;;;;;;;;;;1035153;28;963;-40
2022/02/01 02:14:26;;;;;;;;;;;;;;;;;;1035117;28;1069;-40
2022/02/01 02:14:56;;;;;;;;;;;;;;;;;;1035097;28;950;-40
2022/02/01 02:15:42;;;;;;;;;;;;;;;;;;1035176;28;961;-40
2022/02/01 02:16:12;;;;;;;;;;;;;;;;;;1035216;28;1064;-41
2022/02/01 02:16:44;;;;;;;;;;;;;;;;;;1034852;28;918;-41
2022/02/01 02:17:14;;;;;;;;;;;;;;;;;;1035212;28;838;-40
2022/02/01 02:17:44;;;;;;;;;;;;;;;;;;1035091;28;938;-41
2022/02/01 02:18:17;;;;;;;;;;;;;;;;;;1034853;28;1292;-40
2022/02/01 02:18:48;;;;;;;;;;;;;;;;;;1035107;28;989;-40
2022/02/01 02:19:19;;;;;;;;;;;;;;;;;;1034992;28;958;-40
2022/02/01 02:19:50;;;;;;;;;;;;;;;;;;1035018;28;909;-40
2022/02/01 02:20:21;;;;;;;;;;;;;;;;;;1034926;28;1061;-40
2022/02/01 02:20:52;;;;;;;;;;;;;;;;;;1034854;28;2386;-41
2022/02/01 02:21:22;;;;;;;;;;;;;;;;;;1035167;28;815;-41
2022/02/01 02:21:53;;;;;;;;;;;;;;;;;;1035120;28;1633;-40
2022/02/01 02:22:23;;;;;;;;;;;;;;;;;;1034961;28;949;-40
2022/02/01 02:22:53;;;;;;;;;;;;;;;;;;1034888;28;1176;-41
2022/02/01 02:23:23;;;;;;;;;;;;;;;;;;1034893;28;883;-40
2022/02/01 02:23:54;;;;;;;;;;;;;;;;;;1035120;28;885;-40
2022/02/01 02:24:25;;;;;;;;;;;;;;;;;;1035106;28;1005;-39
2022/02/01 02:24:56;;;;;;;;;;;;;;;;;;1034904;28;1108;-40
2022/02/01 02:25:27;;;;;;;;;;;;;;;;;;1035296;28;851;-41
2022/02/01 02:25:57;;;;;;;;;;;;;;;;;;1035108;28;874;-40
2022/02/01 02:26:28;;;;;;;;;;;;;;;;;;1034951;28;902;-41
2022/02/01 02:26:59;;;;;;;;;;;;;;;;;;1035234;28;1098;-41
2022/02/01 02:27:30;;;;;;;;;;;;;;;;;;1034958;28;1017;-41
2022/02/01 02:28:00;;;;;;;;;;;;;;;;;;1035126;28;933;-41
2022/02/01 02:28:30;;;;;;;;;;;;;;;;;;1035067;28;1181;-41
2022/02/01 02:29:03;;;;;;;;;;;;;;;;;;1034999;28;898;-41
2022/02/01 02:29:33;;;;;;;;;;;;;;;;;;1035203;28;1069;-42
2022/02/01 02:30:04;;;;;;;;;;;;;;;;;;1034886;28;938;-43
2022/02/01 02:30:34;;;;;;;;;;;;;;;;;;1034931;28;835;-41
2022/02/01 02:31:05;;;;;;;;;;;;;;;;;;1035092;28;954;-41
2022/02/01 02:31:38;;;;;;;;;;;;;;;;;;1034835;28;990;-42
2022/02/01 02:32:08;;;;;;;;;;;;;;;;;;1035327;28;859;-41
2022/02/01 02:32:38;;;;;;;;;;;;;;;;;;1035044;28;970;-41
2022/02/01 02:33:11;;;;;;;;;;;;;;;;;;1035103;28;914;-41
2022/02/01 02:33:42;;;;;;;;;;;;;;;;;;1035115;28;906;-41
2022/02/01 02:34:14;;;;;;;;;;;;;;;;;;1034928;28;969;-41
2022/02/01 02:34:45;;;;;;;;;;;;;;;;;;1035024;28;970;-41
2022/02/01 02:35:15;;;;;;;;;;;;;;;;;;1035207;28;914;-42
2022/02/01 02:35:51;;;;;;;;;;;;;;;;;;1034808;28;985;-42
2022/02/01 02:36:22;;;;;;;;;;;;;;;;;;1035086;28;1009;-41
2022/02/01 02:37:00;;;;;;;;;;;;;;;;;;1034951;28;1065;-42
2022/02/01 02:37:32;;;;;;;;;;;;;;;;;;1035057;28;1056;-42
2022/02/01 02:38:07;;;;;;;;;;;;;;;;;;1035061;28;998;-42
2022/02/01 02:40:10;;;;;;;;;;;;;;;;;;1018297;29;1142;-41
2022/02/01 02:41:54;;;;;;;;;;;;;;;;;;1035102;28;950;-41
2022/02/01 02:42:34;;;;;;;;;;;;;;;;;;1034789;28;870;-42
2022/02/01 02:45:09;;;;;;;;;;;;;;;;;;1030911;28;954;-42
2022/02/01 02:45:40;;;;;;;;;;;;;;;;;;1030926;28;1009;-41
2022/02/01 02:46:10;;;;;;;;;;;;;;;;;;1030951;28;950;-42
2022/02/01 02:46:41;;;;;;;;;;;;;;;;;;1030787;28;931;-41
2022/02/01 02:47:11;;;;;;;;;;;;;;;;;;1030969;28;1057;-42
2022/02/01 02:47:42;;;;;;;;;;;;;;;;;;1030899;28;962;-41
2022/02/01 02:48:12;;;;;;;;;;;;;;;;;;1030991;28;969;-41
2022/02/01 02:48:42;;;;;;;;;;;;;;;;;;1031036;28;971;-41
2022/02/01 02:49:14;;;;;;;;;;;;;;;;;;1030819;28;888;-41
2022/02/01 02:49:44;;;;;;;;;;;;;;;;;;1030978;28;996;-42
2022/02/01 02:50:15;;;;;;;;;;;;;;;;;;1030867;28;975;-41
2022/02/01 02:50:45;;;;;;;;;;;;;;;;;;1030757;28;1063;-41
2022/02/01 02:51:15;;;;;;;;;;;;;;;;;;1031096;28;1021;-41
2022/02/01 02:51:46;;;;;;;;;;;;;;;;;;1030819;28;1020;-41
2022/02/01 02:52:16;;;;;;;;;;;;;;;;;;1030949;28;907;-41
2022/02/01 02:52:47;;;;;;;;;;;;;;;;;;1030981;28;963;-40
2022/02/01 02:53:17;;;;;;;;;;;;;;;;;;1030752;28;959;-41
2022/02/01 02:53:48;;;;;;;;;;;;;;;;;;1026702;28;680;-40
2022/02/01 02:54:19;;;;;;;;;;;;;;;;;;1026446;28;1057;-40
2022/02/01 02:54:50;;;;;;;;;;;;;;;;;;1026744;28;890;-41
2022/02/01 02:55:21;;;;;;;;;;;;;;;;;;1026825;28;994;-41
2022/02/01 02:55:51;;;;;;;;;;;;;;;;;;1030844;28;961;-41
2022/02/01 02:56:21;;;;;;;;;;;;;;;;;;1030998;28;863;-41
2022/02/01 02:56:57;;;;;;;;;;;;;;;;;;1030897;28;1102;-41
2022/02/01 02:57:27;;;;;;;;;;;;;;;;;;1030757;28;954;-39
2022/02/01 02:57:57;;;;;;;;;;;;;;;;;;1031065;28;958;-41
2022/02/01 02:58:29;;;;;;;;;;;;;;;;;;1030774;28;938;-41
2022/02/01 02:59:00;;;;;;;;;;;;;;;;;;1030973;28;843;-41
2022/02/01 02:59:30;;;;;;;;;;;;;;;;;;1030910;28;1045;-41
2022/02/01 03:00:00;;;;;;;;;;;;;;;;;;1030786;28;868;-41
2022/02/01 03:00:31;;;;;;;;;;;;;;;;;;1030902;28;877;-41
2022/02/01 03:01:02;;;;;;;;;;;;;;;;;;1030854;28;1907;-41
2022/02/01 03:01:32;;;;;;;;;;;;;;;;;;1030959;28;847;-41
2022/02/01 03:02:03;;;;;;;;;;;;;;;;;;1030784;28;966;-41
2022/02/01 03:02:34;;;;;;;;;;;;;;;;;;1030886;28;1054;-41
2022/02/01 03:03:04;;;;;;;;;;;;;;;;;;1030964;28;946;-41
2022/02/01 03:03:35;;;;;;;;;;;;;;;;;;1030947;28;954;-41
2022/02/01 03:04:05;;;;;;;;;;;;;;;;;;1030676;28;1001;-41
2022/02/01 03:04:36;;;;;;;;;;;;;;;;;;1030995;28;993;-41
2022/02/01 03:05:06;;;;;;;;;;;;;;;;;;1030643;28;1049;-41
2022/02/01 03:05:37;;;;;;;;;;;;;;;;;;1031037;28;926;-41
2022/02/01 03:06:07;;;;;;;;;;;;;;;;;;1030818;28;888;-41
2022/02/01 03:06:38;;;;;;;;;;;;;;;;;;1030728;28;872;-41
2022/02/01 03:07:08;;;;;;;;;;;;;;;;;;1031167;28;994;-41
2022/02/01 03:07:39;;;;;;;;;;;;;;;;;;1030763;28;887;-41
2022/02/01 03:08:09;;;;;;;;;;;;;;;;;;1030926;28;954;-40
2022/02/01 03:08:39;;;;;;;;;;;;;;;;;;1030945;28;1017;-41
2022/02/01 03:09:10;;;;;;;;;;;;;;;;;;1030744;28;938;-41
2022/02/01 03:09:43;;;;;;;;;;;;;;;;;;1031081;28;891;-41
2022/02/01 03:10:13;;;;;;;;;;;;;;;;;;1030775;28;1164;-41
2022/02/01 03:10:45;;;;;;;;;;;;;;;;;;1030701;28;977;-41
2022/02/01 03:11:16;;;;;;;;;;;;;;;;;;1030895;28;987;-41
2022/02/01 03:11:47;;;;;;;;;;;;;;;;;;1030848;28;940;-41
2022/02/01 03:12:33;;;;;;;;;;;;;;;;;;1030779;28;994;-41
2022/02/01 03:13:14;;;;;;;;;;;;;;;;;;1030923;28;842;-41
2022/02/01 03:13:52;;;;;;;;;;;;;;;;;;1030966;28;918;-41
2022/02/01 03:16:47;;;;;;;;;;;;;;;;;;1030877;28;988;-41
2022/02/01 03:17:16;;;;;;;;;;;;;;;;;;1026736;28;1413;-41
2022/02/01 03:19:49;;;;;;;;;;;;;;;;;;1028009;28;1099;-40
2022/02/01 03:20:20;;;;;;;;;;;;;;;;;;1030565;28;1038;-41
2022/02/01 03:20:50;;;;;;;;;;;;;;;;;;1030580;28;1943;-41
2022/02/01 03:21:20;;;;;;;;;;;;;;;;;;1030982;28;926;-41
2022/02/01 03:21:51;;;;;;;;;;;;;;;;;;1030892;28;946;-41
2022/02/01 03:22:28;;;;;;;;;;;;;;;;;;1030802;28;938;-40
2022/02/01 03:22:59;;;;;;;;;;;;;;;;;;1030954;28;914;-41
2022/02/01 03:23:29;;;;;;;;;;;;;;;;;;1030695;28;994;-40
2022/02/01 03:23:59;;;;;;;;;;;;;;;;;;1030913;28;871;-41
2022/02/01 03:24:30;;;;;;;;;;;;;;;;;;1030822;28;966;-41
2022/02/01 03:25:01;;;;;;;;;;;;;;;;;;1030661;28;990;-41
2022/02/01 03:25:32;;;;;;;;;;;;;;;;;;1030935;28;914;-41
2022/02/01 03:26:02;;;;;;;;;;;;;;;;;;1030761;28;962;-41
2022/02/01 03:26:33;;;;;;;;;;;;;;;;;;1030799;28;815;-41
2022/02/01 03:27:03;;;;;;;;;;;;;;;;;;1030807;28;1001;-41
2022/02/01 03:27:34;;;;;;;;;;;;;;;;;;1030673;28;1028;-41
2022/02/01 03:28:04;;;;;;;;;;;;;;;;;;1030930;28;903;-41
2022/02/01 03:28:34;;;;;;;;;;;;;;;;;;1032000;28;1122;-41
2022/02/01 03:29:05;;;;;;;;;;;;;;;;;;1034853;28;886;-41
2022/02/01 03:29:35;;;;;;;;;;;;;;;;;;1034943;28;1082;-41
2022/02/01 03:30:05;;;;;;;;;;;;;;;;;;1034766;28;898;-41
2022/02/01 03:30:36;;;;;;;;;;;;;;;;;;1034868;28;875;-41
2022/02/01 03:31:06;;;;;;;;;;;;;;;;;;1034891;28;941;-41
2022/02/01 03:31:37;;;;;;;;;;;;;;;;;;1034731;28;886;-41
2022/02/01 03:32:07;;;;;;;;;;;;;;;;;;1035120;28;1010;-41
2022/02/01 03:32:38;;;;;;;;;;;;;;;;;;1034524;28;1174;-42
2022/02/01 03:33:08;;;;;;;;;;;;;;;;;;1034992;28;832;-41
2022/02/01 03:33:39;;;;;;;;;;;;;;;;;;1034747;28;1009;-42
2022/02/01 03:34:09;;;;;;;;;;;;;;;;;;1034825;28;950;-42
2022/02/01 03:34:39;;;;;;;;;;;;;;;;;;1034459;28;821;-41
2022/02/01 03:35:10;;;;;;;;;;;;;;;;;;1034538;28;921;-41
2022/02/01 03:35:40;;;;;;;;;;;;;;;;;;1034730;28;902;-41
2022/02/01 03:36:11;;;;;;;;;;;;;;;;;;1035018;28;976;-41
2022/02/01 03:36:41;;;;;;;;;;;;;;;;;;1034403;28;1009;-41
2022/02/01 03:37:12;;;;;;;;;;;;;;;;;;1035142;28;945;-41
2022/02/01 03:37:42;;;;;;;;;;;;;;;;;;1034597;28;977;-41
2022/02/01 03:38:12;;;;;;;;;;;;;;;;;;1034930;28;959;-41
2022/02/01 03:38:43;;;;;;;;;;;;;;;;;;1036704;28;1235;-41
2022/02/01 03:39:14;;;;;;;;;;;;;;;;;;1036059;28;1267;-41
2022/02/01 03:39:45;;;;;;;;;;;;;;;;;;1036770;28;1243;-41
2022/02/01 03:40:18;;;;;;;;;;;;;;;;;;1037537;28;1267;-41
2022/02/01 03:40:48;;;;;;;;;;;;;;;;;;1037081;28;1922;-42
2022/02/01 03:41:19;;;;;;;;;;;;;;;;;;1036229;28;1214;-41
2022/02/01 03:41:50;;;;;;;;;;;;;;;;;;1036013;28;1524;-41
2022/02/01 03:42:23;;;;;;;;;;;;;;;;;;1038932;28;874;-41
2022/02/01 03:42:53;;;;;;;;;;;;;;;;;;1038974;28;980;-42
2022/02/01 03:43:23;;;;;;;;;;;;;;;;;;1038741;28;890;-41
2022/02/01 03:43:54;;;;;;;;;;;;;;;;;;1039039;28;874;-41
2022/02/01 03:44:24;;;;;;;;;;;;;;;;;;1038082;28;1014;-40
2022/02/01 03:44:55;;;;;;;;;;;;;;;;;;1034918;28;885;-40
2022/02/01 03:45:26;;;;;;;;;;;;;;;;;;1034899;28;1070;-41
2022/02/01 03:45:56;;;;;;;;;;;;;;;;;;1034612;28;1171;-41
2022/02/01 03:46:27;;;;;;;;;;;;;;;;;;1034835;28;946;-41
2022/02/01 03:47:01;;;;;;;;;;;;;;;;;;1034833;28;941;-42
2022/02/01 03:47:32;;;;;;;;;;;;;;;;;;1034707;28;1024;-41
2022/02/01 03:48:02;;;;;;;;;;;;;;;;;;1034903;28;957;-41
2022/02/01 03:48:32;;;;;;;;;;;;;;;;;;1034823;28;893;-41
2022/02/01 03:49:03;;;;;;;;;;;;;;;;;;1034776;28;918;-41
2022/02/01 03:49:35;;;;;;;;;;;;;;;;;;1034903;28;929;-41
2022/02/01 03:50:08;;;;;;;;;;;;;;;;;;1034655;28;934;-41
2022/02/01 03:50:38;;;;;;;;;;;;;;;;;;1034682;28;981;-40
2022/02/01 03:51:08;;;;;;;;;;;;;;;;;;1034884;28;913;-41
2022/02/01 03:51:39;;;;;;;;;;;;;;;;;;1034581;28;922;-41
2022/02/01 03:52:10;;;;;;;;;;;;;;;;;;1034968;28;922;-40
2022/02/01 03:52:41;;;;;;;;;;;;;;;;;;1034672;28;913;-41
2022/02/01 03:53:11;;;;;;;;;;;;;;;;;;1034895;28;1141;-41
2022/02/01 03:53:41;;;;;;;;;;;;;;;;;;1034708;28;1004;-41
2022/02/01 03:54:12;;;;;;;;;;;;;;;;;;1034827;28;1024;-40
2022/02/01 03:54:42;;;;;;;;;;;;;;;;;;1034821;28;957;-41
2022/02/01 03:55:13;;;;;;;;;;;;;;;;;;1034866;28;991;-40
2022/02/01 03:55:43;;;;;;;;;;;;;;;;;;1034808;28;838;-41
2022/02/01 03:56:13;;;;;;;;;;;;;;;;;;1034875;28;910;-41
2022/02/01 03:56:43;;;;;;;;;;;;;;;;;;1034588;28;913;-41
2022/02/01 03:57:15;;;;;;;;;;;;;;;;;;1035043;28;845;-41
2022/02/01 03:57:45;;;;;;;;;;;;;;;;;;1034688;28;942;-41
2022/02/01 03:58:15;;;;;;;;;;;;;;;;;;1034754;28;1032;-41
2022/02/01 03:58:46;;;;;;;;;;;;;;;;;;1034643;28;934;-40
2022/02/01 03:59:17;;;;;;;;;;;;;;;;;;1034768;28;1033;-41
2022/02/01 03:59:47;;;;;;;;;;;;;;;;;;1034793;28;905;-41
2022/02/01 04:00:18;;;;;;;;;;;;;;;;;;1034558;28;954;-41
2022/02/01 04:00:49;;;;;;;;;;;;;;;;;;1034486;28;1985;-41
2022/02/01 04:01:19;;;;;;;;;;;;;;;;;;1034949;28;898;-41
2022/02/01 04:01:50;;;;;;;;;;;;;;;;;;1034563;28;1050;-41
2022/02/01 04:02:21;;;;;;;;;;;;;;;;;;1034763;28;961;-41
2022/02/01 04:02:51;;;;;;;;;;;;;;;;;;1034701;28;965;-41
2022/02/01 04:03:21;;;;;;;;;;;;;;;;;;1034613;28;963;-41
2022/02/01 04:03:52;;;;;;;;;;;;;;;;;;1034861;28;933;-41
2022/02/01 04:04:26;;;;;;;;;;;;;;;;;;1034577;28;899;-41
2022/02/01 04:04:56;;;;;;;;;;;;;;;;;;1034632;28;925;-41
2022/02/01 04:05:27;;;;;;;;;;;;;;;;;;1030278;28;862;-41
2022/02/01 04:05:57;;;;;;;;;;;;;;;;;;1030171;28;949;-41
2022/02/01 04:06:28;;;;;;;;;;;;;;;;;;1030477;28;910;-41
2022/02/01 04:06:59;;;;;;;;;;;;;;;;;;1030169;28;974;-41
2022/02/01 04:07:29;;;;;;;;;;;;;;;;;;1034565;28;1046;-41
2022/02/01 04:07:59;;;;;;;;;;;;;;;;;;1034893;28;927;-41
2022/02/01 04:08:30;;;;;;;;;;;;;;;;;;1034630;28;930;-40
2022/02/01 04:09:00;;;;;;;;;;;;;;;;;;1034690;28;941;-41
2022/02/01 04:09:31;;;;;;;;;;;;;;;;;;1034748;28;998;-41
2022/02/01 04:10:02;;;;;;;;;;;;;;;;;;1034632;28;1064;-41
2022/02/01 04:10:32;;;;;;;;;;;;;;;;;;1030263;28;862;-41
2022/02/01 04:11:02;;;;;;;;;;;;;;;;;;1030198;28;1091;-40
2022/02/01 04:11:33;;;;;;;;;;;;;;;;;;1030293;28;965;-40
2022/02/01 04:12:05;;;;;;;;;;;;;;;;;;1030333;28;965;-41
2022/02/01 04:12:37;;;;;;;;;;;;;;;;;;1034635;28;1049;-40
2022/02/01 04:13:07;;;;;;;;;;;;;;;;;;1034884;28;934;-41
2022/02/01 04:13:38;;;;;;;;;;;;;;;;;;1034492;28;890;-41
2022/02/01 04:14:14;;;;;;;;;;;;;;;;;;1034688;28;855;-41
2022/02/01 04:14:46;;;;;;;;;;;;;;;;;;1034636;28;885;-41
2022/02/01 04:15:19;;;;;;;;;;;;;;;;;;1034837;28;858;-40
2022/02/01 04:15:50;;;;;;;;;;;;;;;;;;1034478;28;923;-41
2022/02/01 04:16:20;;;;;;;;;;;;;;;;;;1034702;28;993;-41
2022/02/01 04:16:50;;;;;;;;;;;;;;;;;;1034667;28;894;-41
2022/02/01 04:17:21;;;;;;;;;;;;;;;;;;1034483;28;811;-41
2022/02/01 04:17:52;;;;;;;;;;;;;;;;;;1034775;28;1042;-41
2022/02/01 04:18:23;;;;;;;;;;;;;;;;;;1034544;28;1272;-41
2022/02/01 04:18:53;;;;;;;;;;;;;;;;;;1034642;28;926;-41
2022/02/01 04:19:24;;;;;;;;;;;;;;;;;;1034663;28;906;-41
2022/02/01 04:19:55;;;;;;;;;;;;;;;;;;1034556;28;846;-41
2022/02/01 04:20:26;;;;;;;;;;;;;;;;;;1034439;28;1045;-41
2022/02/01 04:20:57;;;;;;;;;;;;;;;;;;1034525;28;1973;-41
2022/02/01 04:21:27;;;;;;;;;;;;;;;;;;1034716;28;882;-39
2022/02/01 04:22:01;;;;;;;;;;;;;;;;;;1034599;28;895;-41
2022/02/01 04:22:31;;;;;;;;;;;;;;;;;;1034536;28;891;-41
2022/02/01 04:23:02;;;;;;;;;;;;;;;;;;1034766;28;1075;-41
2022/02/01 04:23:32;;;;;;;;;;;;;;;;;;1034675;28;986;-41
2022/02/01 04:24:02;;;;;;;;;;;;;;;;;;1034527;28;942;-40
2022/02/01 04:24:38;;;;;;;;;;;;;;;;;;1034797;28;988;-41
2022/02/01 04:25:09;;;;;;;;;;;;;;;;;;1034606;28;945;-41
2022/02/01 04:25:39;;;;;;;;;;;;;;;;;;1034633;28;1016;-41
2022/02/01 04:26:09;;;;;;;;;;;;;;;;;;1034712;28;961;-40
2022/02/01 04:26:40;;;;;;;;;;;;;;;;;;1034411;28;1101;-42
2022/02/01 04:27:59;;;;;;;;;;;;;;;;;;1034473;28;962;-41
2022/02/01 04:28:30;;;;;;;;;;;;;;;;;;1034456;28;1184;-43
2022/02/01 04:29:00;;;;;;;;;;;;;;;;;;1034617;28;1734;-41
2022/02/01 04:29:30;;;;;;;;;;;;;;;;;;1034723;28;1014;-41
2022/02/01 04:30:07;;;;;;;;;;;;;;;;;;1034502;28;950;-41
2022/02/01 04:30:37;;;;;;;;;;;;;;;;;;1034560;28;922;-41
2022/02/01 04:31:08;;;;;;;;;;;;;;;;;;1034774;28;896;-41
2022/02/01 04:31:38;;;;;;;;;;;;;;;;;;1034506;28;1389;-41
2022/02/01 04:32:08;;;;;;;;;;;;;;;;;;1034740;28;937;-41
2022/02/01 04:32:40;;;;;;;;;;;;;;;;;;1034540;28;914;-41
2022/02/01 04:33:11;;;;;;;;;;;;;;;;;;1034707;28;935;-41
2022/02/01 04:33:42;;;;;;;;;;;;;;;;;;1034618;28;1054;-41
2022/02/01 04:34:12;;;;;;;;;;;;;;;;;;1034576;28;939;-41
2022/02/01 04:34:46;;;;;;;;;;;;;;;;;;1034509;28;997;-41
2022/02/01 04:35:18;;;;;;;;;;;;;;;;;;1034773;28;953;-40
2022/02/01 04:35:48;;;;;;;;;;;;;;;;;;1034377;28;1556;-41
2022/02/01 04:36:18;;;;;;;;;;;;;;;;;;1034659;28;1050;-41
2022/02/01 04:36:49;;;;;;;;;;;;;;;;;;1034567;28;1033;-41
2022/02/01 04:37:21;;;;;;;;;;;;;;;;;;1034645;28;855;-41
2022/02/01 04:37:54;;;;;;;;;;;;;;;;;;1034732;28;949;-41
2022/02/01 04:38:24;;;;;;;;;;;;;;;;;;1034434;28;980;-41
2022/02/01 04:38:57;;;;;;;;;;;;;;;;;;1034694;28;913;-40
2022/02/01 04:39:27;;;;;;;;;;;;;;;;;;1034903;28;962;-41
2022/02/01 04:39:58;;;;;;;;;;;;;;;;;;1034350;28;951;-40
2022/02/01 04:40:28;;;;;;;;;;;;;;;;;;1034653;28;907;-41
2022/02/01 04:40:59;;;;;;;;;;;;;;;;;;1034245;28;1911;-41
2022/02/01 04:41:29;;;;;;;;;;;;;;;;;;1034808;28;914;-41
2022/02/01 04:42:00;;;;;;;;;;;;;;;;;;1034637;28;998;-40
2022/02/01 04:42:34;;;;;;;;;;;;;;;;;;1034525;28;997;-41
2022/02/01 04:43:06;;;;;;;;;;;;;;;;;;1034680;28;940;-40
2022/02/01 04:43:36;;;;;;;;;;;;;;;;;;1034693;28;918;-41
2022/02/01 04:44:07;;;;;;;;;;;;;;;;;;1034526;28;894;-41
2022/02/01 04:44:37;;;;;;;;;;;;;;;;;;1034680;28;1082;-41
2022/02/01 04:45:10;;;;;;;;;;;;;;;;;;1034349;28;1019;-41
2022/02/01 04:45:42;;;;;;;;;;;;;;;;;;1034728;28;819;-41
2022/02/01 04:46:14;;;;;;;;;;;;;;;;;;1035007;28;1019;-41
2022/02/01 04:46:45;;;;;;;;;;;;;;;;;;1035069;28;925;-41
2022/02/01 04:47:15;;;;;;;;;;;;;;;;;;1035653;28;878;-40
2022/02/01 04:47:46;;;;;;;;;;;;;;;;;;1035239;28;1030;-41
2022/02/01 04:48:17;;;;;;;;;;;;;;;;;;1035417;28;957;-41
2022/02/01 04:48:47;;;;;;;;;;;;;;;;;;1035488;28;1010;-41
2022/02/01 04:49:18;;;;;;;;;;;;;;;;;;1035155;28;938;-41
2022/02/01 04:49:48;;;;;;;;;;;;;;;;;;1035441;28;1044;-40
2022/02/01 04:50:20;;;;;;;;;;;;;;;;;;1035341;28;902;-41
2022/02/01 04:50:50;;;;;;;;;;;;;;;;;;1035405;28;791;-41
2022/02/01 04:51:20;;;;;;;;;;;;;;;;;;1035421;28;1699;-40
2022/02/01 04:51:51;;;;;;;;;;;;;;;;;;1035168;28;918;-41
2022/02/01 04:52:21;;;;;;;;;;;;;;;;;;1035463;28;930;-40
2022/02/01 04:52:53;;;;;;;;;;;;;;;;;;1035462;28;907;-41